createdAt,value
2022-12-11T00:01:54.170Z,82.85
2022-12-11T00:31:54.178Z,82.62
2022-12-11T01:01:54.167Z,82.54
2022-12-11T01:31:54.176Z,82.33
2022-12-11T02:01:54.188Z,82.72
2022-12-11T02:31:54.244Z,83.15
2022-12-11T03:01:54.193Z,82.98
2022-12-11T03:31:54.206Z,82.99
2022-12-11T04:01:54.223Z,82.56
2022-12-11T04:31:54.201Z,82.76
2022-12-11T05:01:54.263Z,82.83
2022-12-11T05:31:54.202Z,82.81
2022-12-11T06:01:54.333Z,82.89
2022-12-11T06:31:54.238Z,82.65
2022-12-11T07:01:54.281Z,82.73
2022-12-11T07:31:54.481Z,83.07
2022-12-11T08:01:54.312Z,83.21
2022-12-11T08:31:54.241Z,82.71
2022-12-11T09:01:54.241Z,82.57
2022-12-11T09:31:54.263Z,82.51
2022-12-11T10:01:54.287Z,82.34
2022-12-11T10:31:54.268Z,81.63
2022-12-11T11:01:54.345Z,81.53
2022-12-11T11:31:54.266Z,80.76
2022-12-11T12:01:54.273Z,80.93
2022-12-11T12:31:54.364Z,80.44
2022-12-11T13:01:54.331Z,79.45
2022-12-11T13:31:54.331Z,79.22
2022-12-11T14:01:54.335Z,78.45
2022-12-11T14:31:54.359Z,78.2
2022-12-11T15:01:54.359Z,77.26
2022-12-11T15:31:54.308Z,76.92
2022-12-11T16:01:54.369Z,76.87
2022-12-11T16:31:54.328Z,77.32
2022-12-11T17:01:54.445Z,78
2022-12-11T17:31:54.350Z,78.08
2022-12-11T18:01:54.406Z,78.31
2022-12-11T18:31:54.448Z,78.63
2022-12-11T19:01:54.437Z,78.58
2022-12-11T19:31:54.367Z,78.87
2022-12-11T20:01:54.503Z,79.05
2022-12-11T20:31:54.430Z,79.37
2022-12-11T21:01:54.408Z,79.4
2022-12-11T21:31:54.426Z,79.64
2022-12-11T22:01:54.429Z,79.53
2022-12-11T22:31:54.378Z,79.41
2022-12-11T23:01:54.386Z,79.53
2022-12-11T23:31:54.384Z,79.68
